Time;durP1;ratioP1;P1;durP2;ratioP2;P2;SDS_P1;SDS_P2;PMS_P1;PMS_P2;Temp;Humidity;BMP_temperature;BMP_pressure;BME280_temperature;BME280_humidity;BME280_pressure;Samples;Min_cycle;Max_cycle;Signal;HPM_P1;HPM_P2
2021/04/18 00:01:05;;;;;;;9.90;5.37;;;6.70;92.50;;;;;;5083059;28;20436;-81
2021/04/18 00:03:31;;;;;;;8.32;5.38;;;6.80;92.00;;;;;;5101475;28;20617;-81
2021/04/18 00:05:57;;;;;;;10.13;6.03;;;6.80;91.70;;;;;;5081730;28;20294;-82
2021/04/18 00:08:23;;;;;;;6.57;4.75;;;6.80;91.20;;;;;;5081323;28;20662;-81
2021/04/18 00:10:48;;;;;;;8.70;4.83;;;6.80;91.50;;;;;;5083849;28;20171;-81
2021/04/18 00:13:15;;;;;;;7.20;4.27;;;6.80;91.90;;;;;;5081745;28;20422;-81
2021/04/18 00:15:42;;;;;;;6.30;4.28;;;6.70;91.80;;;;;;5082440;28;20635;-81
2021/04/18 00:18:10;;;;;;;7.65;4.30;;;6.70;92.00;;;;;;5082623;28;20251;-81
2021/04/18 00:20:36;;;;;;;9.43;4.70;;;6.70;91.90;;;;;;5080635;28;20176;-81
2021/04/18 00:23:02;;;;;;;8.80;4.45;;;6.70;92.30;;;;;;5082904;28;20566;-81
2021/04/18 00:25:28;;;;;;;6.43;4.73;;;6.60;92.30;;;;;;5083155;28;20344;-81
2021/04/18 00:27:54;;;;;;;8.60;5.10;;;6.60;92.00;;;;;;5086288;28;20409;-81
2021/04/18 00:30:21;;;;;;;9.73;5.27;;;6.60;92.30;;;;;;5085529;28;20168;-81
2021/04/18 00:32:49;;;;;;;12.43;5.78;;;6.60;92.20;;;;;;5084078;28;20430;-81
2021/04/18 00:35:16;;;;;;;10.75;5.03;;;6.60;92.40;;;;;;5082861;28;20180;-81
2021/04/18 00:37:42;;;;;;;10.68;5.88;;;6.40;92.90;;;;;;5084785;28;20252;-80
2021/04/18 00:40:11;;;;;;;9.02;5.50;;;6.40;93.20;;;;;;5084554;28;20176;-81
2021/04/18 00:42:37;;;;;;;11.32;5.80;;;6.30;93.80;;;;;;5081984;28;20267;-82
2021/04/18 00:45:05;;;;;;;9.05;4.97;;;6.40;93.70;;;;;;5080775;28;20187;-81
2021/04/18 00:47:32;;;;;;;12.10;6.13;;;6.50;93.10;;;;;;5079943;28;20164;-81
2021/04/18 00:50:00;;;;;;;10.20;5.45;;;6.50;93.20;;;;;;5080944;28;20168;-81
2021/04/18 00:52:26;;;;;;;8.43;5.10;;;6.50;92.70;;;;;;5080712;28;20267;-82
2021/04/18 00:54:52;;;;;;;9.43;4.93;;;6.40;92.60;;;;;;5081551;28;20200;-82
2021/04/18 00:57:18;;;;;;;12.50;5.88;;;6.30;92.40;;;;;;5081071;28;20471;-81
2021/04/18 00:59:45;;;;;;;8.45;5.35;;;6.30;92.20;;;;;;5081939;28;20172;-82
2021/04/18 01:02:11;;;;;;;8.60;5.45;;;6.30;92.40;;;;;;5081746;28;20172;-81
2021/04/18 01:04:36;;;;;;;10.47;5.93;;;6.40;92.80;;;;;;5082069;28;20258;-81
2021/04/18 01:07:02;;;;;;;10.60;6.27;;;6.30;92.80;;;;;;5081121;28;20421;-82
2021/04/18 01:09:30;;;;;;;12.45;6.28;;;6.30;92.50;;;;;;5081221;28;20174;-81
2021/04/18 01:11:56;;;;;;;13.63;5.90;;;6.30;93.00;;;;;;5079797;28;20176;-81
2021/04/18 01:14:22;;;;;;;9.32;5.90;;;6.30;92.90;;;;;;5081154;28;20592;-81
2021/04/18 01:16:48;;;;;;;9.50;6.63;;;6.40;92.80;;;;;;5081209;28;20220;-82
2021/04/18 01:19:14;;;;;;;9.90;6.00;;;6.40;92.70;;;;;;5081629;28;20414;-82
2021/04/18 01:21:40;;;;;;;11.77;6.90;;;6.40;92.90;;;;;;5081150;28;20231;-81
2021/04/18 01:24:06;;;;;;;7.90;5.85;;;6.40;93.00;;;;;;5082551;28;20196;-81
2021/04/18 01:26:34;;;;;;;11.25;5.65;;;6.40;92.90;;;;;;5084347;28;20203;-81
2021/04/18 01:29:01;;;;;;;9.43;5.63;;;6.40;93.00;;;;;;5084816;28;20175;-82
2021/04/18 01:31:26;;;;;;;10.90;7.07;;;6.50;93.20;;;;;;5085610;28;20217;-82
2021/04/18 01:33:53;;;;;;;8.83;5.90;;;6.50;93.10;;;;;;5087301;28;20199;-81
2021/04/18 01:36:19;;;;;;;12.23;5.88;;;6.50;93.10;;;;;;5087467;28;20435;-81
2021/04/18 01:38:45;;;;;;;10.43;6.43;;;6.50;93.30;;;;;;5086764;28;20176;-81
2021/04/18 01:41:11;;;;;;;11.65;6.50;;;6.50;93.20;;;;;;5085394;28;20183;-82
2021/04/18 01:43:40;;;;;;;11.27;6.43;;;6.50;92.90;;;;;;5083735;28;20195;-82
2021/04/18 01:46:07;;;;;;;12.10;6.47;;;6.60;92.70;;;;;;5083274;28;20218;-82
2021/04/18 01:48:34;;;;;;;9.10;5.82;;;6.60;92.50;;;;;;5082931;28;20205;-82
2021/04/18 01:51:04;;;;;;;12.70;7.05;;;6.60;92.50;;;;;;5084121;28;20171;-81
2021/04/18 01:53:30;;;;;;;11.98;6.70;;;6.50;92.40;;;;;;5086736;28;20191;-82
2021/04/18 01:55:56;;;;;;;9.40;6.75;;;6.50;92.60;;;;;;5086408;28;20541;-82
2021/04/18 01:58:22;;;;;;;10.50;7.50;;;6.40;93.10;;;;;;5086160;28;20180;-82
2021/04/18 02:00:48;;;;;;;10.37;7.10;;;6.50;93.20;;;;;;5086935;28;20445;-82
2021/04/18 02:03:13;;;;;;;11.30;7.53;;;6.40;93.00;;;;;;5085252;28;20831;-82
2021/04/18 02:05:39;;;;;;;12.13;6.30;;;6.40;93.10;;;;;;5083957;28;20218;-82
2021/04/18 02:08:05;;;;;;;11.17;6.67;;;6.40;93.10;;;;;;5084167;28;20447;-81
2021/04/18 02:10:31;;;;;;;15.85;6.70;;;6.40;92.80;;;;;;5084790;28;20420;-81
2021/04/18 02:12:57;;;;;;;16.40;7.87;;;6.40;93.10;;;;;;5084151;28;20278;-81
2021/04/18 02:15:23;;;;;;;15.67;7.47;;;6.40;93.20;;;;;;5085523;28;20467;-81
2021/04/18 02:17:48;;;;;;;12.40;8.37;;;6.40;93.30;;;;;;5085164;28;20203;-81
2021/04/18 02:20:16;;;;;;;25.70;8.07;;;6.30;93.20;;;;;;5085453;28;20983;-80
2021/04/18 02:22:43;;;;;;;12.65;8.18;;;6.20;93.50;;;;;;5085152;28;20219;-81
2021/04/18 02:25:09;;;;;;;13.68;7.55;;;6.10;93.70;;;;;;5086548;28;20211;-81
2021/04/18 02:27:35;;;;;;;16.50;9.00;;;6.10;94.10;;;;;;5085931;28;20270;-81
2021/04/18 02:30:01;;;;;;;10.70;7.50;;;6.10;94.00;;;;;;5085285;28;20604;-81
2021/04/18 02:32:27;;;;;;;13.83;8.40;;;6.20;94.10;;;;;;5085457;28;20200;-81
2021/04/18 02:34:53;;;;;;;13.60;8.00;;;6.10;94.40;;;;;;5084295;28;20422;-81
2021/04/18 02:37:18;;;;;;;12.30;7.77;;;6.20;94.30;;;;;;5084742;28;20578;-81
2021/04/18 02:39:44;;;;;;;19.90;8.33;;;6.20;94.20;;;;;;5085656;28;20414;-81
2021/04/18 02:42:10;;;;;;;15.43;9.27;;;6.10;94.50;;;;;;5084582;28;20258;-81
2021/04/18 02:44:36;;;;;;;13.37;8.47;;;6.00;94.90;;;;;;5083565;28;20176;-82
2021/04/18 02:47:02;;;;;;;11.95;8.30;;;6.00;95.10;;;;;;5083910;28;20906;-80
2021/04/18 02:49:28;;;;;;;15.48;9.32;;;6.10;95.10;;;;;;5084551;28;20588;-80
2021/04/18 02:51:54;;;;;;;12.93;8.60;;;6.10;95.10;;;;;;5084031;28;20203;-80
2021/04/18 02:54:20;;;;;;;15.20;8.80;;;6.10;95.20;;;;;;5084054;28;20203;-81
2021/04/18 02:56:46;;;;;;;16.08;7.85;;;6.20;94.90;;;;;;5084174;28;20179;-81
2021/04/18 02:59:11;;;;;;;20.23;8.93;;;6.30;94.80;;;;;;5083684;28;20233;-80
2021/04/18 03:01:37;;;;;;;21.40;7.93;;;6.30;94.70;;;;;;5083639;28;20272;-80
2021/04/18 03:04:04;;;;;;;14.32;8.57;;;6.30;94.50;;;;;;5084182;28;20443;-81
2021/04/18 03:06:30;;;;;;;17.05;9.80;;;6.40;94.70;;;;;;5084374;28;20278;-81
2021/04/18 03:08:56;;;;;;;15.73;8.77;;;6.30;94.20;;;;;;5089749;28;20270;-82
2021/04/18 03:11:22;;;;;;;13.27;8.37;;;6.30;94.10;;;;;;5088005;28;20410;-81
2021/04/18 03:13:48;;;;;;;14.73;8.70;;;6.30;94.10;;;;;;5084052;28;20878;-81
2021/04/18 03:16:14;;;;;;;11.90;7.97;;;6.30;94.20;;;;;;5085112;28;20207;-81
2021/04/18 03:18:40;;;;;;;16.00;9.30;;;6.30;94.20;;;;;;5084722;28;20921;-81
2021/04/18 03:21:06;;;;;;;16.23;8.98;;;6.30;94.20;;;;;;5084718;28;20182;-81
2021/04/18 03:23:31;;;;;;;15.40;9.10;;;6.40;94.40;;;;;;5085279;28;20195;-81
2021/04/18 03:25:57;;;;;;;16.77;8.70;;;6.40;94.10;;;;;;5085198;28;20453;-81
2021/04/18 03:28:23;;;;;;;13.93;9.25;;;6.40;94.10;;;;;;5084968;28;20410;-81
2021/04/18 03:30:51;;;;;;;14.17;8.13;;;6.30;94.50;;;;;;5084348;28;20178;-81
2021/04/18 03:33:17;;;;;;;16.27;9.45;;;6.30;94.60;;;;;;5084331;28;20430;-79
2021/04/18 03:35:42;;;;;;;14.75;8.73;;;6.40;94.30;;;;;;5083607;28;20197;-80
2021/04/18 03:38:09;;;;;;;14.40;9.30;;;6.40;94.10;;;;;;5084091;28;20172;-79
2021/04/18 03:40:36;;;;;;;15.80;9.90;;;6.30;94.40;;;;;;5083171;28;20444;-80
2021/04/18 03:43:02;;;;;;;19.02;10.70;;;6.30;94.50;;;;;;5083636;28;20196;-80
2021/04/18 03:45:28;;;;;;;17.17;10.13;;;6.30;94.70;;;;;;5085000;28;20238;-79
2021/04/18 03:47:54;;;;;;;16.27;9.93;;;6.30;94.70;;;;;;5084077;28;20168;-80
2021/04/18 03:50:20;;;;;;;16.77;9.53;;;6.30;94.50;;;;;;5102889;28;20846;-80
2021/04/18 03:52:48;;;;;;;16.90;9.10;;;6.30;94.50;;;;;;5084287;28;20434;-79
2021/04/18 03:55:19;;;;;;;19.35;9.82;;;6.20;94.60;;;;;;5085371;28;20425;-79
2021/04/18 03:57:45;;;;;;;18.00;9.70;;;6.10;94.80;;;;;;5084681;28;20694;-79
2021/04/18 04:00:11;;;;;;;19.83;11.43;;;6.20;94.60;;;;;;5085434;28;20180;-79
2021/04/18 04:02:37;;;;;;;19.45;10.93;;;6.10;94.70;;;;;;5084904;28;20195;-79
2021/04/18 04:05:03;;;;;;;17.67;9.77;;;6.20;95.00;;;;;;5085975;28;20222;-79
2021/04/18 04:07:29;;;;;;;15.10;9.00;;;6.30;94.80;;;;;;5084725;28;20192;-80
2021/04/18 04:09:54;;;;;;;13.97;9.37;;;6.30;94.50;;;;;;5085555;28;20305;-80
2021/04/18 04:12:21;;;;;;;18.03;10.20;;;6.30;94.40;;;;;;5083002;28;20528;-78
2021/04/18 04:14:47;;;;;;;17.38;9.90;;;6.30;94.20;;;;;;5083867;28;20163;-79
2021/04/18 04:17:13;;;;;;;20.03;8.80;;;6.30;94.30;;;;;;5083021;28;20198;-80
2021/04/18 04:19:39;;;;;;;17.40;9.93;;;6.40;94.20;;;;;;5080226;28;20171;-82
2021/04/18 04:22:05;;;;;;;16.55;9.48;;;6.40;94.10;;;;;;5079279;28;20164;-82
2021/04/18 04:24:31;;;;;;;15.70;8.50;;;6.40;93.90;;;;;;5078027;28;20743;-83
2021/04/18 04:26:57;;;;;;;16.60;9.03;;;6.40;93.70;;;;;;5077971;28;20223;-83
2021/04/18 04:29:23;;;;;;;15.20;9.27;;;6.40;93.40;;;;;;5095022;28;20402;-83
2021/04/18 04:31:48;;;;;;;14.70;7.80;;;6.50;93.40;;;;;;5076780;28;20454;-84
2021/04/18 04:34:21;;;;;;;19.47;9.20;;;6.50;93.60;;;;;;5076634;28;20681;-83
2021/04/18 04:36:47;;;;;;;16.92;9.13;;;6.60;93.00;;;;;;5076631;28;20175;-83
2021/04/18 04:39:13;;;;;;;13.67;8.40;;;6.60;93.50;;;;;;5076727;28;20670;-83
2021/04/18 04:41:39;;;;;;;14.53;8.73;;;6.60;93.50;;;;;;5077112;28;20167;-82
2021/04/18 04:44:05;;;;;;;11.13;7.80;;;6.60;93.00;;;;;;5076610;28;20192;-83
2021/04/18 04:46:30;;;;;;;18.08;9.52;;;6.60;92.50;;;;;;5076192;28;20202;-83
2021/04/18 04:48:56;;;;;;;17.70;9.10;;;6.40;92.40;;;;;;5076450;28;20190;-83
2021/04/18 04:51:22;;;;;;;14.17;8.17;;;6.40;92.90;;;;;;5076613;28;20179;-82
2021/04/18 04:53:48;;;;;;;17.90;8.83;;;6.50;93.00;;;;;;5075882;28;20225;-82
2021/04/18 04:56:13;;;;;;;17.50;8.80;;;6.50;92.70;;;;;;5075964;28;20417;-83
2021/04/18 04:58:39;;;;;;;12.50;7.67;;;6.50;93.20;;;;;;5076602;28;20180;-82
2021/04/18 05:01:05;;;;;;;13.33;8.50;;;6.40;93.00;;;;;;5077558;28;20264;-82
2021/04/18 05:03:30;;;;;;;15.83;9.47;;;6.50;93.40;;;;;;5077229;28;20289;-82
2021/04/18 05:05:56;;;;;;;15.30;8.50;;;6.50;93.30;;;;;;5076556;28;20208;-82
2021/04/18 05:08:22;;;;;;;15.83;8.17;;;6.60;93.10;;;;;;5076647;28;20599;-82
2021/04/18 05:10:48;;;;;;;12.80;7.85;;;6.60;93.50;;;;;;5076793;28;20425;-82
2021/04/18 05:13:14;;;;;;;14.47;8.67;;;6.60;92.80;;;;;;5076167;28;20188;-82
2021/04/18 05:15:40;;;;;;;16.37;8.50;;;6.60;92.90;;;;;;5075896;28;20180;-82
2021/04/18 05:18:05;;;;;;;13.33;7.83;;;6.70;92.70;;;;;;5076207;28;20502;-83
2021/04/18 05:20:31;;;;;;;13.77;8.07;;;6.70;92.40;;;;;;5075595;28;20406;-82
2021/04/18 05:22:58;;;;;;;15.63;8.27;;;6.70;92.30;;;;;;5075780;28;20192;-82
2021/04/18 05:25:24;;;;;;;11.55;7.68;;;6.80;91.80;;;;;;5144031;22;20439;-80
2021/04/18 05:27:50;;;;;;;15.83;8.17;;;6.80;91.60;;;;;;5123067;28;20174;-82
2021/04/18 05:30:16;;;;;;;12.57;7.47;;;6.80;91.80;;;;;;5121021;28;20484;-82
2021/04/18 05:32:42;;;;;;;11.75;7.32;;;6.90;91.60;;;;;;5120103;28;20432;-82
2021/04/18 05:35:09;;;;;;;11.97;7.30;;;6.90;90.40;;;;;;5123394;28;20626;-82
2021/04/18 05:37:35;;;;;;;16.92;8.63;;;6.80;89.50;;;;;;5119495;28;20419;-82
2021/04/18 05:40:01;;;;;;;14.23;7.80;;;6.80;88.80;;;;;;5119776;28;20175;-82
2021/04/18 05:42:27;;;;;;;11.55;6.82;;;6.80;89.20;;;;;;5119608;28;20469;-82
2021/04/18 05:44:53;;;;;;;14.07;7.20;;;6.80;89.20;;;;;;5119890;28;20244;-82
2021/04/18 05:47:19;;;;;;;12.30;7.38;;;6.80;90.10;;;;;;5118922;28;20163;-82
2021/04/18 05:49:44;;;;;;;13.30;7.33;;;6.80;90.40;;;;;;5119458;28;20167;-83
2021/04/18 05:52:10;;;;;;;16.73;8.70;;;6.90;90.40;;;;;;5120137;28;20598;-83
2021/04/18 05:54:36;;;;;;;13.77;7.47;;;6.80;90.70;;;;;;5119388;28;20409;-82
2021/04/18 05:57:02;;;;;;;15.27;9.37;;;6.90;91.00;;;;;;5120963;28;20235;-82
2021/04/18 05:59:28;;;;;;;15.07;9.10;;;6.90;91.60;;;;;;5120341;28;20175;-81
2021/04/18 06:01:53;;;;;;;14.87;9.33;;;6.90;91.50;;;;;;5119679;28;20182;-82
2021/04/18 06:04:19;;;;;;;12.90;8.93;;;7.00;91.60;;;;;;5115126;28;20440;-81
2021/04/18 06:06:45;;;;;;;18.10;9.70;;;7.10;91.60;;;;;;5114599;28;21057;-83
2021/04/18 06:09:10;;;;;;;13.83;8.40;;;7.10;91.60;;;;;;5120148;28;20415;-83
2021/04/18 06:11:36;;;;;;;14.93;8.70;;;7.20;91.60;;;;;;5123073;28;20190;-83
2021/04/18 06:14:02;;;;;;;18.70;9.67;;;7.20;91.40;;;;;;5125909;28;20190;-83
2021/04/18 06:16:28;;;;;;;15.93;8.48;;;7.20;91.10;;;;;;5125921;28;20202;-83
2021/04/18 06:18:54;;;;;;;16.83;9.50;;;7.20;91.40;;;;;;5126186;28;20175;-83
2021/04/18 06:21:19;;;;;;;19.00;10.17;;;7.30;91.00;;;;;;5125059;28;20826;-83
2021/04/18 06:23:45;;;;;;;13.90;8.27;;;7.30;90.60;;;;;;5123575;28;20472;-82
2021/04/18 06:26:12;;;;;;;14.57;9.20;;;7.30;90.80;;;;;;5123166;28;20203;-82
2021/04/18 06:28:38;;;;;;;19.55;9.82;;;7.30;90.60;;;;;;5124023;28;20191;-82
2021/04/18 06:31:05;;;;;;;12.80;8.77;;;7.40;90.60;;;;;;5124940;28;20171;-82
2021/04/18 06:33:30;;;;;;;15.63;9.07;;;7.40;89.90;;;;;;5123366;28;20520;-82
2021/04/18 06:35:56;;;;;;;15.87;9.00;;;7.40;90.10;;;;;;5123234;28;20220;-82
2021/04/18 06:38:22;;;;;;;14.82;9.20;;;7.40;89.20;;;;;;5123392;28;20413;-82
2021/04/18 06:40:54;;;;;;;15.47;8.90;;;7.40;89.50;;;;;;5122229;28;20534;-83
2021/04/18 06:43:21;;;;;;;20.85;9.82;;;7.40;89.20;;;;;;5123762;28;20429;-85
2021/04/18 06:45:52;;;;;;;16.13;8.68;;;7.50;89.20;;;;;;5121986;28;20197;-81
2021/04/18 06:48:18;;;;;;;14.75;9.13;;;7.50;89.50;;;;;;5122572;28;20167;-81
2021/04/18 06:50:45;;;;;;;21.30;10.40;;;7.60;88.90;;;;;;5122214;28;20167;-81
2021/04/18 06:53:11;;;;;;;16.73;8.80;;;7.60;89.20;;;;;;5120947;28;20198;-80
2021/04/18 06:55:38;;;;;;;13.20;9.23;;;7.60;89.10;;;;;;5122098;28;20164;-81
2021/04/18 06:58:04;;;;;;;22.55;10.10;;;7.60;89.40;;;;;;5123229;28;20578;-81
2021/04/18 07:00:30;;;;;;;20.35;10.55;;;7.70;89.20;;;;;;5124477;28;20186;-81
2021/04/18 07:03:16;;;;;;;19.85;10.02;;;7.70;89.10;;;;;;5124488;28;20259;-81
2021/04/18 07:05:47;;;;;;;17.80;9.13;;;7.80;90.50;;;;;;5125251;28;20204;-81
2021/04/18 07:08:20;;;;;;;21.02;11.25;;;7.90;88.50;;;;;;5125757;28;20666;-83
2021/04/18 07:10:47;;;;;;;16.05;8.73;;;8.00;90.10;;;;;;5122429;28;20163;-82
2021/04/18 07:13:16;;;;;;;15.13;9.32;;;8.00;88.90;;;;;;5121625;28;20192;-82
2021/04/18 07:15:47;;;;;;;18.40;9.70;;;8.00;88.00;;;;;;5125241;28;20258;-82
2021/04/18 07:18:36;;;;;;;15.75;8.77;;;8.00;86.90;;;;;;5125017;28;20661;-81
2021/04/18 07:21:02;;;;;;;18.25;9.75;;;8.10;86.90;;;;;;5124922;28;20577;-81
2021/04/18 07:23:30;;;;;;;21.85;10.90;;;8.20;86.60;;;;;;5124404;28;20693;-81
2021/04/18 07:25:57;;;;;;;19.35;9.82;;;8.30;87.10;;;;;;5126415;28;20267;-82
2021/04/18 07:28:27;;;;;;;19.45;10.35;;;8.40;87.10;;;;;;5125327;28;20175;-80
2021/04/18 07:31:02;;;;;;;16.50;9.23;;;8.40;84.60;;;;;;5124614;28;20169;-81
2021/04/18 07:33:28;;;;;;;20.58;9.45;;;8.50;85.60;;;;;;5125159;28;20277;-81
2021/04/18 07:35:54;;;;;;;18.10;9.67;;;8.60;84.60;;;;;;5125796;28;20175;-80
2021/04/18 07:38:26;;;;;;;26.10;10.57;;;8.60;85.30;;;;;;5125184;28;20413;-81
2021/04/18 07:40:54;;;;;;;20.00;9.13;;;8.70;84.40;;;;;;5126216;28;20413;-82
2021/04/18 07:43:20;;;;;;;18.73;10.30;;;8.70;84.40;;;;;;5127329;28;20221;-81
2021/04/18 07:45:47;;;;;;;16.67;9.70;;;8.70;83.40;;;;;;5125225;28;20199;-81
2021/04/18 07:48:19;;;;;;;19.33;10.02;;;8.80;84.90;;;;;;5125196;28;20197;-81
2021/04/18 07:50:47;;;;;;;17.00;8.93;;;8.80;85.10;;;;;;5125305;28;20234;-81
2021/04/18 07:53:18;;;;;;;17.05;9.68;;;8.90;85.80;;;;;;5125063;28;20190;-81
2021/04/18 07:55:45;;;;;;;17.42;9.60;;;8.90;84.40;;;;;;5124457;28;20171;-81
2021/04/18 07:58:11;;;;;;;16.65;9.55;;;8.90;82.40;;;;;;5124918;28;20166;-81
2021/04/18 08:00:38;;;;;;;17.08;9.32;;;9.00;83.00;;;;;;5126047;28;20196;-81
2021/04/18 08:03:05;;;;;;;18.98;10.07;;;9.00;83.00;;;;;;5126602;28;20195;-81
2021/04/18 08:05:33;;;;;;;18.85;9.73;;;9.00;82.00;;;;;;5126882;28;20234;-81
2021/04/18 08:08:01;;;;;;;17.40;8.85;;;9.00;81.20;;;;;;5126000;28;20190;-86
2021/04/18 08:10:40;;;;;;;18.98;10.65;;;9.00;82.70;;;;;;5124829;28;20163;-81
2021/04/18 08:13:23;;;;;;;18.42;9.63;;;8.80;82.80;;;;;;5125787;28;20226;-81
2021/04/18 08:15:58;;;;;;;21.98;9.32;;;8.90;83.80;;;;;;5112010;28;20187;-81
2021/04/18 08:18:36;;;;;;;15.43;8.88;;;9.00;83.10;;;;;;5126375;28;20189;-81
2021/04/18 08:21:22;;;;;;;18.98;8.98;;;9.00;81.90;;;;;;5125620;28;20167;-81
2021/04/18 08:23:48;;;;;;;18.85;9.95;;;9.10;82.80;;;;;;5125653;28;20233;-82
2021/04/18 08:26:16;;;;;;;21.77;9.40;;;9.20;81.40;;;;;;5124913;28;20225;-81
2021/04/18 08:28:51;;;;;;;17.42;9.18;;;9.30;81.30;;;;;;5125614;28;20515;-81
2021/04/18 08:31:17;;;;;;;19.52;8.00;;;9.30;80.50;;;;;;5124113;28;20697;-80
2021/04/18 08:33:46;;;;;;;17.02;8.48;;;9.40;80.60;;;;;;5123161;28;20187;-80
2021/04/18 08:36:13;;;;;;;17.05;8.20;;;9.40;78.80;;;;;;5124686;28;20179;-80
2021/04/18 08:38:40;;;;;;;15.85;8.25;;;9.50;78.40;;;;;;5123749;28;20262;-80
2021/04/18 08:41:11;;;;;;;15.98;9.05;;;9.50;79.10;;;;;;5124559;28;20648;-80
2021/04/18 08:43:37;;;;;;;16.52;9.43;;;9.60;79.60;;;;;;5123021;28;20235;-80
2021/04/18 08:46:03;;;;;;;16.08;8.40;;;9.70;80.10;;;;;;5121894;28;20710;-80
2021/04/18 08:48:29;;;;;;;16.03;8.70;;;9.70;77.70;;;;;;5123017;28;20293;-80
2021/04/18 08:50:59;;;;;;;14.93;6.73;;;9.70;76.30;;;;;;5122598;28;20424;-80
2021/04/18 08:53:27;;;;;;;12.30;7.55;;;9.70;76.60;;;;;;5122850;28;20195;-80
2021/04/18 08:56:02;;;;;;;12.77;6.43;;;9.70;77.40;;;;;;5122651;28;20167;-81
2021/04/18 08:58:33;;;;;;;18.23;9.10;;;9.60;76.70;;;;;;5121752;28;20198;-81
2021/04/18 09:01:25;;;;;;;13.02;6.50;;;9.60;76.40;;;;;;5121934;28;20171;-81
2021/04/18 09:04:02;;;;;;;19.08;6.80;;;9.50;77.10;;;;;;5119576;28;20240;-81
2021/04/18 09:06:35;;;;;;;13.23;7.80;;;9.50;77.40;;;;;;5121786;28;20753;-80
2021/04/18 09:09:06;;;;;;;23.98;7.90;;;9.70;78.00;;;;;;5122108;28;20159;-81
2021/04/18 09:11:39;;;;;;;16.50;6.57;;;9.70;76.90;;;;;;5122682;28;20167;-80
2021/04/18 09:14:05;;;;;;;14.02;7.07;;;9.80;77.30;;;;;;5121900;28;20179;-80
2021/04/18 09:16:34;;;;;;;12.52;6.93;;;9.90;76.90;;;;;;5120967;28;20167;-80
2021/04/18 09:19:23;;;;;;;13.48;7.20;;;10.10;74.80;;;;;;5121066;28;20171;-81
2021/04/18 09:22:07;;;;;;;15.38;7.93;;;10.10;75.10;;;;;;5120782;28;20642;-81
2021/04/18 09:24:40;;;;;;;17.77;7.30;;;10.30;76.70;;;;;;5121267;28;20195;-81
2021/04/18 09:27:08;;;;;;;12.13;6.80;;;10.50;75.20;;;;;;5121412;28;20316;-80
2021/04/18 09:29:38;;;;;;;13.23;6.47;;;10.60;72.10;;;;;;5121066;28;20630;-80
2021/04/18 09:32:08;;;;;;;14.20;6.80;;;10.60;72.70;;;;;;5120707;28;20245;-79
2021/04/18 09:34:36;;;;;;;13.00;7.07;;;10.40;73.40;;;;;;5120187;28;20175;-81
2021/04/18 09:37:06;;;;;;;14.77;7.40;;;10.40;70.90;;;;;;5119565;28;20579;-80
2021/04/18 09:39:34;;;;;;;14.13;7.22;;;10.30;72.40;;;;;;5120728;28;20163;-81
2021/04/18 09:42:01;;;;;;;16.10;7.20;;;10.20;71.90;;;;;;5120071;28;20249;-80
2021/04/18 09:44:33;;;;;;;13.77;6.95;;;10.20;71.70;;;;;;5119925;28;20201;-80
2021/04/18 09:47:15;;;;;;;23.13;6.95;;;10.40;74.10;;;;;;5120903;28;20191;-81
2021/04/18 09:50:01;;;;;;;14.60;7.05;;;10.60;73.00;;;;;;5122010;28;20170;-81
2021/04/18 09:52:38;;;;;;;17.20;6.90;;;10.70;71.00;;;;;;5122233;28;20585;-80
2021/04/18 09:55:28;;;;;;;9.88;6.35;;;10.80;70.90;;;;;;5123631;28;20163;-81
2021/04/18 09:57:59;;;;;;;14.35;7.00;;;10.90;68.80;;;;;;5124150;28;20546;-80
2021/04/18 10:00:31;;;;;;;14.52;7.03;;;10.90;67.10;;;;;;5121697;28;20167;-80
2021/04/18 10:02:58;;;;;;;15.57;6.97;;;10.70;67.30;;;;;;5123321;28;20194;-80
2021/04/18 10:05:23;;;;;;;21.88;6.60;;;10.70;69.40;;;;;;5124045;28;20267;-79
2021/04/18 10:07:49;;;;;;;13.43;6.47;;;10.80;68.30;;;;;;5123736;28;20583;-79
2021/04/18 10:10:32;;;;;;;13.53;5.10;;;10.90;67.40;;;;;;5123504;28;20420;-80
2021/04/18 10:13:00;;;;;;;12.13;6.68;;;11.10;67.80;;;;;;5124912;28;20198;-80
2021/04/18 10:15:26;;;;;;;14.70;6.20;;;11.30;66.40;;;;;;5123847;28;20167;-79
2021/04/18 10:17:52;;;;;;;15.88;7.70;;;11.50;67.00;;;;;;5125351;28;20175;-79
2021/04/18 10:20:28;;;;;;;11.50;6.43;;;11.60;66.20;;;;;;5125144;28;20645;-79
2021/04/18 10:23:09;;;;;;;15.35;7.45;;;11.80;66.40;;;;;;5118956;28;20194;-82
2021/04/18 10:25:37;;;;;;;24.08;7.38;;;11.90;66.40;;;;;;5117872;28;20206;-80
2021/04/18 10:28:04;;;;;;;13.60;7.50;;;12.00;65.30;;;;;;5125365;28;20262;-80
2021/04/18 10:30:31;;;;;;;16.83;7.40;;;12.00;65.30;;;;;;5125954;28;20213;-80
2021/04/18 10:32:57;;;;;;;15.77;7.43;;;11.90;63.40;;;;;;5123690;28;20208;-80
2021/04/18 10:35:23;;;;;;;13.63;7.30;;;11.70;64.50;;;;;;5112645;28;20226;-79
2021/04/18 10:37:50;;;;;;;13.95;7.07;;;11.50;64.90;;;;;;5102554;28;20205;-80
2021/04/18 10:40:19;;;;;;;16.90;8.38;;;11.50;65.90;;;;;;5118512;28;20274;-79
2021/04/18 10:42:45;;;;;;;11.00;7.00;;;11.70;65.20;;;;;;5123064;28;20195;-80
2021/04/18 10:45:12;;;;;;;15.80;7.88;;;12.00;64.90;;;;;;5123102;28;20203;-80
2021/04/18 10:47:38;;;;;;;19.40;8.82;;;12.20;65.90;;;;;;5123293;28;20192;-79
2021/04/18 10:50:05;;;;;;;17.58;8.68;;;12.30;64.60;;;;;;5124086;28;20179;-80
2021/04/18 10:52:32;;;;;;;16.80;7.90;;;12.30;64.80;;;;;;5123035;28;20277;-79
2021/04/18 10:54:58;;;;;;;14.70;7.22;;;12.40;63.40;;;;;;5123164;28;20167;-80
2021/04/18 10:57:24;;;;;;;21.17;8.23;;;12.20;62.40;;;;;;5123644;28;20666;-80
2021/04/18 10:59:50;;;;;;;19.27;8.48;;;12.00;64.60;;;;;;5123061;28;20435;-80
2021/04/18 11:02:16;;;;;;;17.13;8.93;;;12.10;64.50;;;;;;5123019;28;20175;-80
2021/04/18 11:04:42;;;;;;;15.75;8.20;;;12.20;65.20;;;;;;5124333;28;20169;-80
2021/04/18 11:07:08;;;;;;;14.95;8.30;;;12.40;64.20;;;;;;5123826;28;20206;-80
2021/04/18 11:09:36;;;;;;;18.70;8.88;;;12.40;62.10;;;;;;5124740;28;20175;-80
2021/04/18 11:12:03;;;;;;;12.93;7.95;;;12.30;61.90;;;;;;5124429;28;20643;-80
2021/04/18 11:14:29;;;;;;;17.95;8.82;;;12.20;62.60;;;;;;5123004;28;20550;-80
2021/04/18 11:16:55;;;;;;;14.77;7.70;;;12.30;63.40;;;;;;5120043;28;20199;-80
2021/04/18 11:19:20;;;;;;;15.50;7.22;;;12.20;64.80;;;;;;5102720;28;20457;-82
2021/04/18 11:21:47;;;;;;;16.60;8.40;;;12.30;63.40;;;;;;5101014;28;20172;-81
2021/04/18 11:24:12;;;;;;;19.00;7.53;;;12.30;63.70;;;;;;5102527;28;20425;-81
2021/04/18 11:26:38;;;;;;;17.13;8.40;;;12.10;63.00;;;;;;5102335;28;20215;-81
2021/04/18 11:36:47;;;;;;;16.15;8.93;;;12.20;63.40;;;;;;5118330;28;20268;-86
2021/04/18 11:39:15;;;;;;;16.23;8.45;;;12.30;62.30;;;;;;5102350;28;20163;-91
2021/04/18 11:41:42;;;;;;;17.20;9.07;;;12.40;64.20;;;;;;5101107;28;20197;-88
2021/04/18 11:44:14;;;;;;;18.55;8.35;;;12.40;62.00;;;;;;5120354;28;20697;-89
2021/04/18 11:46:53;;;;;;;16.52;7.47;;;12.40;63.00;;;;;;5098304;28;20217;-89
2021/04/18 11:49:23;;;;;;;14.50;7.53;;;12.50;62.00;;;;;;5100465;28;20220;-91
2021/04/18 11:51:49;;;;;;;18.25;8.65;;;12.50;63.00;;;;;;5101030;28;20163;-90
2021/04/18 11:54:16;;;;;;;12.82;7.85;;;12.50;63.70;;;;;;5099977;28;20194;-90
2021/04/18 11:56:42;;;;;;;10.90;7.15;;;12.60;63.30;;;;;;5101024;28;20172;-90
2021/04/18 11:59:11;;;;;;;18.73;8.20;;;12.80;62.00;;;;;;5105081;28;20171;-89
2021/04/18 12:01:40;;;;;;;15.13;7.18;;;12.80;61.90;;;;;;5102155;28;20228;-89
2021/04/18 12:04:06;;;;;;;12.50;7.28;;;12.80;62.10;;;;;;5106357;28;20202;-89
2021/04/18 12:06:32;;;;;;;17.53;7.53;;;12.90;61.40;;;;;;5104730;28;20194;-89
2021/04/18 12:08:59;;;;;;;14.50;6.95;;;12.80;62.60;;;;;;5104547;28;20412;-89
2021/04/18 12:11:25;;;;;;;13.05;7.47;;;12.70;62.10;;;;;;5107396;28;20198;-86
2021/04/18 12:13:51;;;;;;;13.00;7.20;;;12.80;62.60;;;;;;5111378;28;20206;-89
2021/04/18 12:16:17;;;;;;;12.93;6.70;;;12.70;62.60;;;;;;5105916;28;21010;-90
2021/04/18 12:18:43;;;;;;;18.17;8.73;;;12.70;62.80;;;;;;5105666;28;20171;-89
2021/04/18 12:21:10;;;;;;;14.73;7.88;;;12.70;63.00;;;;;;5104685;28;20175;-89
2021/04/18 12:23:37;;;;;;;16.63;6.45;;;12.80;62.60;;;;;;5104280;28;20187;-89
2021/04/18 12:26:03;;;;;;;16.80;7.22;;;12.90;62.10;;;;;;5103152;28;20199;-89
2021/04/18 12:28:29;;;;;;;13.85;7.47;;;12.90;60.90;;;;;;5098494;28;20171;-90
2021/04/18 12:30:55;;;;;;;21.27;6.90;;;13.00;61.90;;;;;;5099250;28;20171;-90
2021/04/18 12:33:21;;;;;;;14.18;8.68;;;13.10;61.00;;;;;;5100013;28;20231;-89
2021/04/18 12:35:47;;;;;;;14.98;7.75;;;13.10;60.20;;;;;;5103288;28;20215;-90
2021/04/18 12:38:13;;;;;;;14.37;7.23;;;13.00;60.10;;;;;;5103601;28;20554;-90
2021/04/18 12:40:39;;;;;;;14.70;7.80;;;13.10;59.80;;;;;;5099648;28;20409;-90
2021/04/18 12:43:05;;;;;;;13.43;7.13;;;13.30;61.30;;;;;;5098960;28;20975;-90
2021/04/18 12:45:30;;;;;;;15.10;7.80;;;13.50;60.10;;;;;;5099214;28;20207;-89
2021/04/18 12:47:57;;;;;;;13.02;7.82;;;13.60;59.30;;;;;;5102414;28;20186;-91
2021/04/18 12:50:23;;;;;;;14.90;7.90;;;13.80;58.50;;;;;;5099724;28;20204;-91
2021/04/18 12:52:49;;;;;;;21.53;7.83;;;14.00;59.30;;;;;;5102489;28;20190;-87
2021/04/18 12:55:15;;;;;;;12.73;7.53;;;14.10;58.30;;;;;;5103608;28;20413;-87